createdAt,value
2018-08-23T00:01:37.687Z,70.13
2018-08-23T00:04:07.848Z,71.24
2018-08-23T00:06:37.091Z,70.25
2018-08-23T00:09:08.156Z,71.05
2018-08-23T00:11:40.959Z,70.19
2018-08-23T00:14:09.760Z,70.72
2018-08-23T00:16:44.136Z,69.78
2018-08-23T00:19:13.115Z,70.37
2018-08-23T00:21:46.710Z,71.31
2018-08-23T00:24:16.552Z,70.65
2018-08-23T00:26:47.287Z,71.11
2018-08-23T00:29:31.595Z,71.27
2018-08-23T00:32:01.804Z,70.11
2018-08-23T00:34:40.417Z,70.29
2018-08-23T00:37:09.795Z,70.97
2018-08-23T00:39:38.255Z,73.51
2018-08-23T00:42:13.047Z,73.78
2018-08-23T00:45:02.274Z,74.45
2018-08-23T00:47:33.128Z,72.83
2018-08-23T00:50:01.625Z,72.05
2018-08-23T00:52:45.795Z,72.04
2018-08-23T00:55:27.305Z,74.33
2018-08-23T00:57:55.786Z,75.84
2018-08-23T01:00:25.483Z,74.31
2018-08-23T01:03:01.592Z,75.32
2018-08-23T01:05:35.171Z,76.96
2018-08-23T01:08:04.411Z,75.96
2018-08-23T01:10:32.878Z,75.92
2018-08-23T01:13:02.451Z,75.63
2018-08-23T01:15:32.097Z,76.02
2018-08-23T01:18:15.900Z,75.91
2018-08-23T01:20:45.569Z,77.88
2018-08-23T01:23:14.037Z,79.77
2018-08-23T01:25:43.607Z,79.52
2018-08-23T01:28:12.406Z,77.56
2018-08-23T01:30:41.424Z,77.69
2018-08-23T01:33:12.885Z,77.19
2018-08-23T01:35:43.203Z,77.09
2018-08-23T01:38:12.401Z,77.42
2018-08-23T01:40:41.607Z,78.38
2018-08-23T01:43:10.060Z,77.93
2018-08-23T01:45:38.516Z,80.92
2018-08-23T01:48:08.331Z,79.51
2018-08-23T01:50:36.830Z,79.45
2018-08-23T01:53:05.308Z,78.13
2018-08-23T01:55:33.716Z,77.84
2018-08-23T01:58:02.230Z,78.92
2018-08-23T02:00:32.134Z,78.52
2018-08-23T02:03:01.133Z,78.87
2018-08-23T02:05:29.722Z,78.82
2018-08-23T02:07:58.275Z,77.78
2018-08-23T02:10:26.691Z,77.22
2018-08-23T02:12:56.480Z,78.47
2018-08-23T02:15:24.994Z,78.38
2018-08-23T02:17:55.566Z,78.59
2018-08-23T02:20:25.014Z,80.55
2018-08-23T02:22:54.333Z,80.20
2018-08-23T02:25:23.206Z,82.25
2018-08-23T02:28:03.182Z,82.21
2018-08-23T02:30:53.285Z,80.71
2018-08-23T02:33:21.753Z,79.86
2018-08-23T02:36:06.759Z,80.45
2018-08-23T02:38:36.268Z,80.08
2018-08-23T02:41:05.018Z,80.64
2018-08-23T02:43:33.466Z,79.79
2018-08-23T02:46:03.150Z,80.21
2018-08-23T02:48:31.607Z,82.38
2018-08-23T02:51:00.048Z,84.04
2018-08-23T02:53:33.929Z,80.69
2018-08-23T02:56:09.024Z,73.72
2018-08-23T02:58:48.615Z,71.28
2018-08-23T03:01:17.086Z,71.24
2018-08-23T03:04:28.152Z,74.77
2018-08-23T03:07:03.448Z,75.30
2018-08-23T03:09:33.547Z,72.17
2018-08-23T03:12:06.213Z,69.83
2018-08-23T03:14:35.075Z,71.98
2018-08-23T03:17:19.933Z,72.60
2018-08-23T03:20:13.144Z,71.61
2018-08-23T03:22:42.305Z,72.17
2018-08-23T03:25:12.054Z,71.79
2018-08-23T03:27:40.608Z,71.98
2018-08-23T03:30:10.832Z,71.08
2018-08-23T03:32:39.667Z,76.42
2018-08-23T03:35:08.430Z,80.23
2018-08-23T03:37:37.079Z,81.28
2018-08-23T03:40:06.026Z,81.96
2018-08-23T03:42:34.496Z,82.98
2018-08-23T03:45:03.389Z,83.95
2018-08-23T03:48:04.764Z,86.09
2018-08-23T03:50:35.571Z,84.31
2018-08-23T03:53:03.980Z,85.09
2018-08-23T03:55:32.638Z,87.11
2018-08-23T03:58:02.759Z,85.65
2018-08-23T04:00:36.395Z,85.00
2018-08-23T04:03:10.132Z,85.61
2018-08-23T04:05:38.861Z,88.56
2018-08-23T04:08:07.263Z,88.63
2018-08-23T04:10:35.778Z,88.76
2018-08-23T04:13:04.242Z,87.28
2018-08-23T04:15:33.049Z,87.51
2018-08-23T04:18:06.551Z,87.90
2018-08-23T04:20:35.371Z,88.04
2018-08-23T04:23:03.783Z,86.84
2018-08-23T04:25:32.236Z,86.70
2018-08-23T04:28:00.658Z,88.16
2018-08-23T04:30:29.144Z,85.24
2018-08-23T04:32:57.579Z,85.46
2018-08-23T04:35:27.994Z,85.84
2018-08-23T04:37:56.836Z,84.77
2018-08-23T04:40:25.420Z,85.21
2018-08-23T04:42:54.069Z,85.56
2018-08-23T04:45:25.731Z,87.01
2018-08-23T04:47:59.775Z,85.80
2018-08-23T04:50:28.203Z,86.39
2018-08-23T04:52:56.639Z,85.01
2018-08-23T04:55:25.755Z,85.50
2018-08-23T04:57:54.776Z,84.63
2018-08-23T05:00:23.226Z,84.03
2018-08-23T05:02:51.632Z,84.05
2018-08-23T05:05:20.535Z,85.43
2018-08-23T05:07:49.213Z,82.91
2018-08-23T05:10:17.704Z,82.24
2018-08-23T05:12:46.119Z,81.64
2018-08-23T05:15:14.567Z,80.85
2018-08-23T05:17:43.485Z,81.59
2018-08-23T05:20:11.915Z,80.46
2018-08-23T05:22:45.864Z,80.02
2018-08-23T05:25:15.451Z,79.79
2018-08-23T05:28:01.071Z,78.03
2018-08-23T05:30:30.116Z,77.81
2018-08-23T05:33:02.604Z,77.08
2018-08-23T05:35:31.821Z,77.83
2018-08-23T05:38:01.131Z,78.06
2018-08-23T05:40:34.152Z,77.88
2018-08-23T05:43:02.602Z,76.78
2018-08-23T05:45:36.512Z,74.24
2018-08-23T05:48:32.135Z,76.46
2018-08-23T05:51:04.965Z,74.48
2018-08-23T05:53:34.128Z,73.74
2018-08-23T05:56:02.899Z,73.03
2018-08-23T05:58:32.691Z,73.56
2018-08-23T06:01:01.590Z,73.29
2018-08-23T06:03:30.196Z,73.29
2018-08-23T06:05:58.895Z,71.28
2018-08-23T06:08:27.314Z,71.19
2018-08-23T06:11:02.934Z,73.04
2018-08-23T06:13:31.328Z,72.94
2018-08-23T06:15:59.770Z,73.44
2018-08-23T06:18:28.520Z,71.86
2018-08-23T06:20:57.018Z,69.81
2018-08-23T06:23:32.168Z,70.60
2018-08-23T06:26:00.632Z,70.71
2018-08-23T06:28:29.043Z,71.30
2018-08-23T06:30:58.776Z,71.48
2018-08-23T06:33:39.524Z,69.45
2018-08-23T06:36:09.379Z,68.12
2018-08-23T06:38:39.465Z,67.55
2018-08-23T06:41:08.688Z,66.49
2018-08-23T06:43:37.112Z,68.16
2018-08-23T06:46:05.788Z,67.89
2018-08-23T06:48:34.277Z,68.16
2018-08-23T06:51:03.765Z,69.75
2018-08-23T06:53:40.277Z,69.71
2018-08-23T06:56:09.279Z,67.35
2018-08-23T06:58:37.742Z,63.97
2018-08-23T07:01:11.540Z,62.01
2018-08-23T07:03:49.463Z,62.77
2018-08-23T07:06:17.883Z,61.97
2018-08-23T07:08:46.295Z,61.86
2018-08-23T07:11:21.865Z,60.94
2018-08-23T07:13:56.748Z,60.08
2018-08-23T07:16:25.694Z,60.17
2018-08-23T07:18:54.115Z,58.48
2018-08-23T07:21:22.575Z,58.03
2018-08-23T07:24:06.559Z,59.61
2018-08-23T07:26:34.902Z,57.71
2018-08-23T07:29:03.343Z,55.18
2018-08-23T07:31:31.802Z,55.87
2018-08-23T07:34:00.446Z,57.02
2018-08-23T07:36:31.159Z,57.78
2018-08-23T07:38:59.880Z,56.95
2018-08-23T07:41:28.305Z,56.33
2018-08-23T07:43:56.724Z,55.84
2018-08-23T07:46:25.157Z,55.11
2018-08-23T07:48:53.716Z,54.36
2018-08-23T07:51:25.885Z,54.09
2018-08-23T07:53:57.609Z,52.40
2018-08-23T07:56:28.066Z,51.77
2018-08-23T07:58:57.653Z,52.08
2018-08-23T08:01:31.816Z,52.54
2018-08-23T08:04:01.033Z,52.13
2018-08-23T08:06:29.908Z,53.48
2018-08-23T08:09:00.104Z,52.25
2018-08-23T08:11:34.595Z,52.41
2018-08-23T08:14:13.339Z,50.34
2018-08-23T08:16:41.762Z,55.00
2018-08-23T08:19:10.274Z,55.28
2018-08-23T08:21:38.784Z,54.92
2018-08-23T08:24:07.286Z,55.93
2018-08-23T08:26:35.749Z,55.27
2018-08-23T08:29:04.193Z,56.03
2018-08-23T08:31:32.603Z,54.70
2018-08-23T08:34:01.128Z,55.64
2018-08-23T08:36:31.635Z,57.41
2018-08-23T08:39:01.060Z,56.24
2018-08-23T08:41:34.571Z,58.09
2018-08-23T08:44:03.857Z,58.28
2018-08-23T08:46:32.602Z,57.57
2018-08-23T08:49:01.020Z,57.35
2018-08-23T08:51:32.653Z,54.78
2018-08-23T08:54:03.558Z,53.25
2018-08-23T08:56:38.337Z,53.75
2018-08-23T08:59:06.771Z,54.31
2018-08-23T09:01:35.232Z,53.28
2018-08-23T09:04:03.898Z,52.39
2018-08-23T09:06:37.598Z,51.71
2018-08-23T09:09:14.275Z,50.14
2018-08-23T09:11:43.088Z,49.48
2018-08-23T09:14:11.551Z,49.37
2018-08-23T09:16:40.069Z,50.17
2018-08-23T09:19:08.442Z,48.33
2018-08-23T09:21:36.867Z,48.17
2018-08-23T09:24:20.079Z,49.44
2018-08-23T09:26:48.535Z,50.32
2018-08-23T09:29:29.704Z,49.00
2018-08-23T09:32:04.792Z,48.24
2018-08-23T09:34:33.159Z,50.94
2018-08-23T09:37:01.559Z,48.83
2018-08-23T09:39:29.978Z,49.26
2018-08-23T09:41:58.415Z,47.77
2018-08-23T09:44:26.872Z,48.53
2018-08-23T09:47:00.551Z,48.29
2018-08-23T09:49:28.984Z,48.92
2018-08-23T09:51:57.363Z,48.45
2018-08-23T09:54:27.675Z,48.36
2018-08-23T09:56:56.536Z,46.60
2018-08-23T09:59:25.387Z,47.87
2018-08-23T10:01:58.940Z,46.39
2018-08-23T10:04:32.681Z,47.25
2018-08-23T10:07:06.281Z,46.16
2018-08-23T10:09:39.987Z,45.20
2018-08-23T10:14:20.095Z,47.16
2018-08-23T10:16:53.832Z,45.50
2018-08-23T10:19:27.402Z,45.19
2018-08-23T10:22:01.046Z,47.23
2018-08-23T10:24:32.960Z,46.08
2018-08-23T10:27:01.486Z,44.55
2018-08-23T10:29:29.938Z,45.86
2018-08-23T10:31:58.440Z,44.79
2018-08-23T10:34:27.047Z,45.60
2018-08-23T10:36:55.721Z,43.50
2018-08-23T10:39:24.160Z,43.04
2018-08-23T10:41:52.575Z,43.34
2018-08-23T10:44:21.072Z,43.00
2018-08-23T10:46:54.611Z,43.30
2018-08-23T10:49:23.056Z,42.87
2018-08-23T10:51:51.470Z,43.61
2018-08-23T10:54:19.879Z,42.60
2018-08-23T10:56:48.308Z,42.06
2018-08-23T10:59:16.768Z,40.70
2018-08-23T11:01:45.184Z,41.50
2018-08-23T11:04:13.608Z,40.58
2018-08-23T11:06:47.075Z,41.02
2018-08-23T11:09:20.835Z,40.33
2018-08-23T11:11:49.272Z,42.24
2018-08-23T11:14:22.709Z,41.51
2018-08-23T11:16:56.555Z,41.44
2018-08-23T11:19:30.017Z,40.57
2018-08-23T11:21:58.520Z,40.74
2018-08-23T11:24:26.969Z,40.02
2018-08-23T11:26:55.479Z,40.21
2018-08-23T11:29:23.938Z,38.83
2018-08-23T11:31:52.370Z,37.28
2018-08-23T11:34:27.110Z,38.51
2018-08-23T11:36:55.547Z,36.57
2018-08-23T11:39:24.014Z,38.11
2018-08-23T11:41:52.384Z,38.47
2018-08-23T11:44:21.057Z,35.45
2018-08-23T11:46:49.489Z,37.05
2018-08-23T11:49:17.933Z,36.92
2018-08-23T11:51:46.387Z,35.26
2018-08-23T11:54:14.808Z,33.44
2018-08-23T11:56:43.579Z,31.14
2018-08-23T11:59:12.281Z,33.57
2018-08-23T12:01:40.943Z,32.30
2018-08-23T12:04:09.389Z,30.06
2018-08-23T12:06:37.883Z,28.69
2018-08-23T12:09:07.657Z,30.26
2018-08-23T12:11:36.097Z,28.39
2018-08-23T12:14:04.735Z,27.50
2018-08-23T12:16:33.156Z,29.13
2018-08-23T12:19:01.724Z,29.26
2018-08-23T12:21:30.425Z,30.23
2018-08-23T12:23:58.804Z,31.82
2018-08-23T12:26:27.267Z,31.56
2018-08-23T12:29:00.987Z,30.67
2018-08-23T12:31:29.485Z,31.68
2018-08-23T12:33:58.011Z,29.62
2018-08-23T12:36:31.611Z,30.79
2018-08-23T12:39:05.403Z,28.33
2018-08-23T12:43:41.799Z,26.40
2018-08-23T12:46:10.311Z,25.05
2018-08-23T12:48:39.200Z,25.00
2018-08-23T12:51:07.608Z,24.55
2018-08-23T12:53:36.119Z,26.76
2018-08-23T12:56:04.551Z,25.75
2018-08-23T12:58:33.123Z,26.62
2018-08-23T13:01:01.551Z,25.63
2018-08-23T13:03:30.016Z,28.19
2018-08-23T13:05:58.473Z,23.89
2018-08-23T13:08:26.888Z,24.05
2018-08-23T13:10:55.325Z,25.39
2018-08-23T13:13:23.722Z,23.95
2018-08-23T13:15:52.108Z,23.29
2018-08-23T13:18:20.575Z,23.89
2018-08-23T13:20:49.088Z,30.13
2018-08-23T13:23:17.505Z,29.36
2018-08-23T13:25:51.301Z,31.71
2018-08-23T13:28:19.725Z,33.19
2018-08-23T13:30:48.190Z,32.30
2018-08-23T13:33:16.915Z,33.31
2018-08-23T13:35:45.488Z,32.95
2018-08-23T13:38:13.908Z,33.09
2018-08-23T13:40:42.320Z,34.18
2018-08-23T13:43:10.772Z,32.89
2018-08-23T13:45:39.203Z,32.13
2018-08-23T13:48:07.727Z,30.82
2018-08-23T13:50:37.043Z,31.06
2018-08-23T13:53:05.767Z,31.89
2018-08-23T13:55:34.242Z,31.84
2018-08-23T13:58:02.642Z,31.96
2018-08-23T14:00:36.325Z,30.98
2018-08-23T14:03:04.850Z,32.23
2018-08-23T14:05:33.448Z,31.45
2018-08-23T14:08:01.940Z,29.27
2018-08-23T14:10:30.391Z,29.83
2018-08-23T14:12:58.939Z,31.44
2018-08-23T14:15:32.515Z,29.03
2018-08-23T14:18:00.984Z,30.71
2018-08-23T14:20:29.404Z,29.46
2018-08-23T14:22:57.833Z,30.32
2018-08-23T14:25:26.319Z,31.22
2018-08-23T14:27:54.765Z,32.77
2018-08-23T14:30:23.313Z,31.95
2018-08-23T14:32:51.893Z,31.02
2018-08-23T14:35:20.360Z,31.86
2018-08-23T14:37:48.939Z,30.64
2018-08-23T14:40:17.447Z,29.56
2018-08-23T14:42:46.012Z,28.41
2018-08-23T14:45:18.857Z,28.91
2018-08-23T14:47:52.589Z,27.66
2018-08-23T14:50:21.207Z,27.28
2018-08-23T14:52:49.644Z,28.15
2018-08-23T14:55:23.324Z,27.35
2018-08-23T14:57:51.749Z,27.79
2018-08-23T15:00:20.187Z,29.55
2018-08-23T15:02:48.660Z,29.50
2018-08-23T15:05:17.139Z,31.14
2018-08-23T15:07:45.667Z,32.93
2018-08-23T15:10:14.045Z,31.83
2018-08-23T15:12:42.511Z,29.44
2018-08-23T15:15:10.932Z,29.78
2018-08-23T15:17:39.663Z,27.93
2018-08-23T15:20:08.147Z,27.29
2018-08-23T15:22:36.630Z,29.06
2018-08-23T15:25:05.388Z,27.74
2018-08-23T15:27:34.753Z,28.83
2018-08-23T15:30:04.594Z,31.27
2018-08-23T15:32:33.019Z,30.18
2018-08-23T15:35:01.508Z,29.07
2018-08-23T15:37:29.915Z,29.44
2018-08-23T15:39:59.450Z,29.35
2018-08-23T15:42:27.990Z,29.63
2018-08-23T15:44:56.522Z,31.00
2018-08-23T15:47:25.570Z,28.67
2018-08-23T15:49:54.036Z,28.47
2018-08-23T15:52:22.536Z,30.34
2018-08-23T15:54:51.214Z,30.88
2018-08-23T15:57:19.647Z,30.94
2018-08-23T15:59:48.107Z,30.05
2018-08-23T16:02:16.910Z,29.73
2018-08-23T16:04:45.371Z,28.46
2018-08-23T16:07:13.759Z,28.66
2018-08-23T16:09:42.226Z,30.20
2018-08-23T16:12:10.688Z,30.41
2018-08-23T16:14:39.331Z,30.76
2018-08-23T16:17:12.912Z,30.23
2018-08-23T16:19:46.668Z,30.11
2018-08-23T16:22:15.186Z,32.35
2018-08-23T16:24:43.755Z,31.16
2018-08-23T16:27:12.401Z,33.54
2018-08-23T16:29:45.012Z,32.33
2018-08-23T16:32:17.816Z,31.78
2018-08-23T16:34:46.263Z,31.68
2018-08-23T16:37:14.673Z,32.24
2018-08-23T16:39:43.136Z,32.07
2018-08-23T16:42:11.652Z,32.62
2018-08-23T16:44:40.104Z,32.18
2018-08-23T16:47:09.268Z,32.12
2018-08-23T16:49:38.147Z,31.54
2018-08-23T16:52:06.964Z,33.04
2018-08-23T16:54:35.706Z,33.41
2018-08-23T16:57:04.640Z,32.47
2018-08-23T16:59:33.068Z,31.95
2018-08-23T17:02:01.533Z,32.29
2018-08-23T17:04:48.200Z,30.48
2018-08-23T17:07:17.628Z,31.28
2018-08-23T17:09:46.386Z,32.42
2018-08-23T17:12:14.966Z,32.60
2018-08-23T17:14:43.411Z,33.49
2018-08-23T17:17:17.107Z,33.74
2018-08-23T17:19:45.742Z,35.38
2018-08-23T17:22:14.205Z,34.47
2018-08-23T17:24:42.901Z,35.88
2018-08-23T17:27:11.340Z,37.95
2018-08-23T17:29:39.809Z,39.71
2018-08-23T17:32:08.328Z,38.20
2018-08-23T17:34:36.736Z,37.70
2018-08-23T17:37:05.148Z,39.00
2018-08-23T17:39:33.868Z,39.15
2018-08-23T17:42:02.623Z,40.33
2018-08-23T17:44:31.122Z,40.51
2018-08-23T17:46:59.763Z,40.73
2018-08-23T17:49:28.305Z,41.26
2018-08-23T17:51:56.626Z,42.27
2018-08-23T17:54:25.270Z,41.60
2018-08-23T17:56:53.780Z,42.29
2018-08-23T17:59:22.236Z,43.47
2018-08-23T18:01:50.919Z,42.57
2018-08-23T18:04:19.564Z,42.81
2018-08-23T18:06:47.990Z,42.79
2018-08-23T18:09:16.428Z,43.09
2018-08-23T18:11:45.296Z,43.98
2018-08-23T18:14:14.206Z,44.42
2018-08-23T18:16:47.786Z,44.31
2018-08-23T18:19:16.339Z,44.96
2018-08-23T18:21:45.007Z,44.70
2018-08-23T18:24:13.470Z,44.70
2018-08-23T18:26:41.963Z,47.64
2018-08-23T18:29:10.626Z,45.61
2018-08-23T18:31:39.246Z,45.46
2018-08-23T18:34:07.979Z,46.17
2018-08-23T18:36:36.395Z,45.29
2018-08-23T18:39:07.076Z,46.36
2018-08-23T18:41:35.545Z,46.32
2018-08-23T18:44:04.033Z,46.74
2018-08-23T18:46:32.769Z,46.15
2018-08-23T18:49:01.428Z,47.42
2018-08-23T18:51:31.135Z,47.33
2018-08-23T18:54:00.443Z,47.53
2018-08-23T18:56:30.307Z,47.27
2018-08-23T18:58:58.796Z,46.99
2018-08-23T19:01:27.237Z,46.08
2018-08-23T19:03:55.640Z,46.36
2018-08-23T19:06:29.352Z,45.93
2018-08-23T19:08:57.789Z,47.10
2018-08-23T19:11:26.279Z,46.66
2018-08-23T19:13:54.804Z,48.21
2018-08-23T19:16:28.548Z,48.93
2018-08-23T19:18:57.117Z,47.04
2018-08-23T19:21:25.812Z,46.17
2018-08-23T19:23:54.327Z,46.65
2018-08-23T19:26:22.750Z,45.43
2018-08-23T19:28:51.186Z,46.67
2018-08-23T19:31:19.738Z,45.89
2018-08-23T19:33:48.083Z,46.23
2018-08-23T19:36:17.095Z,47.50
2018-08-23T19:38:45.569Z,48.44
2018-08-23T19:41:14.003Z,48.20
2018-08-23T19:43:42.425Z,49.59
2018-08-23T19:46:16.079Z,50.73
2018-08-23T19:48:45.736Z,50.87
2018-08-23T19:51:14.211Z,52.28
2018-08-23T19:53:42.688Z,57.94
2018-08-23T19:56:11.150Z,62.31
2018-08-23T19:58:39.554Z,66.63
2018-08-23T20:01:07.979Z,68.59
2018-08-23T20:03:36.424Z,70.69
2018-08-23T20:06:04.865Z,70.40
2018-08-23T20:08:33.431Z,70.09
2018-08-23T20:11:02.017Z,71.58
2018-08-23T20:13:30.501Z,75.11
2018-08-23T20:15:58.907Z,75.69
2018-08-23T20:18:27.860Z,76.49
2018-08-23T20:20:56.664Z,77.12
2018-08-23T20:23:25.071Z,76.95
2018-08-23T20:25:53.544Z,75.44
2018-08-23T20:28:22.188Z,75.39
2018-08-23T20:30:50.679Z,73.43
2018-08-23T20:33:19.492Z,73.93
2018-08-23T20:35:48.274Z,74.04
2018-08-23T20:38:16.721Z,74.84
2018-08-23T20:40:45.355Z,75.68
2018-08-23T20:43:13.803Z,76.22
2018-08-23T20:45:42.917Z,80.83
2018-08-23T20:48:11.321Z,80.07
2018-08-23T20:50:40.624Z,82.48
2018-08-23T20:53:09.057Z,84.21
2018-08-23T20:55:37.480Z,83.92
2018-08-23T20:58:06.014Z,84.22
2018-08-23T21:00:34.397Z,83.04
2018-08-23T21:03:02.946Z,85.64
2018-08-23T21:05:31.512Z,87.97
2018-08-23T21:07:59.994Z,86.16
2018-08-23T21:10:28.400Z,87.47
2018-08-23T21:12:57.086Z,87.16
2018-08-23T21:15:25.572Z,85.66
2018-08-23T21:17:54.347Z,86.95
2018-08-23T21:20:22.800Z,87.70
2018-08-23T21:22:51.257Z,87.15
2018-08-23T21:25:19.688Z,85.73
2018-08-23T21:27:48.128Z,85.81
2018-08-23T21:30:16.583Z,85.23
2018-08-23T21:32:45.037Z,87.82
2018-08-23T21:35:13.480Z,100.00
2018-08-23T21:37:42.200Z,100.00
2018-08-23T21:40:10.647Z,100.00
2018-08-23T21:42:39.154Z,100.00
2018-08-23T21:45:08.207Z,100.00
2018-08-23T21:47:36.706Z,100.00
2018-08-23T21:50:05.233Z,100.00
2018-08-23T21:52:33.788Z,100.00
2018-08-23T21:55:02.432Z,100.00
2018-08-23T21:57:31.311Z,100.00
2018-08-23T21:59:59.700Z,100.00
2018-08-23T22:02:28.146Z,100.00
2018-08-23T22:04:57.965Z,100.00
2018-08-23T22:07:26.422Z,100.00
2018-08-23T22:09:55.489Z,98.18
2018-08-23T22:12:25.014Z,99.45
2018-08-23T22:14:54.610Z,96.73
2018-08-23T22:17:23.601Z,98.20
2018-08-23T22:19:52.891Z,100.00
2018-08-23T22:22:21.308Z,100.00
2018-08-23T22:24:50.051Z,100.00
2018-08-23T22:27:18.467Z,99.53
2018-08-23T22:29:46.926Z,100.00
2018-08-23T22:32:15.468Z,100.00
2018-08-23T22:34:44.107Z,100.00
2018-08-23T22:37:12.559Z,100.00
2018-08-23T22:39:41.138Z,100.00
2018-08-23T22:42:09.667Z,97.97
2018-08-23T22:44:38.114Z,97.84
2018-08-23T22:47:06.911Z,100.00
2018-08-23T22:49:35.382Z,99.37
2018-08-23T22:52:03.982Z,96.71
2018-08-23T22:54:32.436Z,100.00
2018-08-23T22:57:01.186Z,100.00
2018-08-23T22:59:29.671Z,100.00
2018-08-23T23:01:58.129Z,100.00
2018-08-23T23:04:27.046Z,100.00
2018-08-23T23:06:56.143Z,100.00
2018-08-23T23:09:24.605Z,100.00
2018-08-23T23:11:53.268Z,100.00
2018-08-23T23:14:21.726Z,100.00
2018-08-23T23:16:53.799Z,100.00
2018-08-23T23:19:23.111Z,100.00
2018-08-23T23:21:51.693Z,100.00
2018-08-23T23:24:25.204Z,100.00
2018-08-23T23:26:53.995Z,100.00
2018-08-23T23:29:22.419Z,100.00
2018-08-23T23:31:50.915Z,100.00
2018-08-23T23:34:19.540Z,100.00
2018-08-23T23:36:47.964Z,100.00
2018-08-23T23:39:16.401Z,100.00
2018-08-23T23:41:44.858Z,100.00
2018-08-23T23:44:13.359Z,100.00
2018-08-23T23:46:41.804Z,100.00
2018-08-23T23:49:10.248Z,100.00
2018-08-23T23:51:38.701Z,100.00
2018-08-23T23:54:07.569Z,100.00
2018-08-23T23:56:35.998Z,100.00
2018-08-23T23:59:05.085Z,100.00
